Time;durP1;ratioP1;P1;durP2;ratioP2;P2;SDS_P1;SDS_P2;PMS_P1;PMS_P2;Temp;Humidity;BMP_temperature;BMP_pressure;BME280_temperature;BME280_humidity;BME280_pressure;Samples;Min_cycle;Max_cycle;Signal;HPM_P1;HPM_P2
2023/05/20 00:00:08;;;;;;;;;21.75;21.50;;;;;-147.17;100.00;2459.22;4987303;28;51132;-62
2023/05/20 00:02:34;;;;;;;;;18.00;16.00;;;;;-147.17;100.00;2957.06;4986751;28;51335;-62
2023/05/20 00:04:59;;;;;;;;;18.25;17.50;;;;;-147.17;100.00;2708.13;4986807;28;51741;-62
2023/05/20 00:07:24;;;;;;;;;20.00;18.50;;;;;-147.17;100.00;3206.00;4986599;28;51110;-62
2023/05/20 00:09:50;;;;;;;;;18.50;18.50;;;;;-147.17;100.00;2708.13;4986358;28;51341;-61
2023/05/20 00:12:15;;;;;;;;;18.75;18.50;;;;;-147.17;100.00;2459.22;4987238;28;51121;-62
2023/05/20 00:14:41;;;;;;;;;18.50;18.00;;;;;-147.17;100.00;1214.91;4969451;28;51133;-61
2023/05/20 00:17:06;;;;;;;;;18.25;17.25;;;;;-147.17;100.00;1214.91;4986444;28;52159;-62
2023/05/20 00:19:31;;;;;;;;;19.75;17.75;;;;;-147.17;100.00;1214.91;4986650;28;53131;-62
2023/05/20 00:21:57;;;;;;;;;20.50;17.50;;;;;-147.17;100.00;1712.56;4986900;28;51618;-62
2023/05/20 00:24:24;;;;;;;;;20.25;18.25;;;;;-147.17;100.00;1712.56;4987078;28;51159;-61
2023/05/20 00:26:49;;;;;;;;;19.00;18.25;;;;;-147.17;100.00;1463.72;4986219;28;51850;-62
2023/05/20 00:29:14;;;;;;;;;19.50;18.75;;;;;-147.17;100.00;966.09;4986084;28;55201;-61
2023/05/20 00:31:40;;;;;;;;;19.50;19.00;;;;;-147.17;100.00;468.50;4986821;28;52716;-61
2023/05/20 00:34:06;;;;;;;;;17.75;16.00;;;;;-147.17;100.00;468.50;4986845;28;51244;-62
2023/05/20 00:36:31;;;;;;;;;21.50;19.50;;;;;-147.17;100.00;717.28;4985904;28;51891;-62
2023/05/20 00:38:57;;;;;;;;;22.00;20.75;;;;;-147.17;100.00;219.72;4986593;28;51034;-61
2023/05/20 00:41:22;;;;;;;;;17.00;16.00;;;;;-147.17;100.00;219.72;4986778;28;53436;-61
2023/05/20 00:43:47;;;;;;;;;21.00;19.00;;;;;-147.17;100.00;219.72;4986488;28;51287;-61
2023/05/20 00:46:13;;;;;;;;;18.50;17.25;;;;;-147.17;100.00;-29.03;4986111;28;51112;-61
2023/05/20 00:48:40;;;;;;;;;19.75;19.50;;;;;-147.17;100.00;-526.47;4968444;28;51196;-61
2023/05/20 00:51:06;;;;;;;;;14.25;13.50;;;;;-147.17;100.00;-1023.88;4986339;28;53404;-62
2023/05/20 00:53:33;;;;;;;;;18.00;17.50;;;;;-147.17;100.00;-775.19;4985705;28;51554;-60
2023/05/20 00:55:59;;;;;;;;;17.25;15.00;;;;;-147.17;100.00;-775.19;4985681;28;53014;-62
2023/05/20 00:58:24;;;;;;;;;19.00;18.25;;;;;-147.17;100.00;-1023.88;4986379;28;51306;-62
2023/05/20 01:00:50;;;;;;;;;18.50;17.50;;;;;-147.17;100.00;-1023.88;4968593;28;51241;-61
2023/05/20 01:03:16;;;;;;;;;17.50;16.75;;;;;-147.17;100.00;-1769.84;4986445;28;51271;-61
2023/05/20 01:05:41;;;;;;;;;17.00;16.50;;;;;-147.17;100.00;-1521.19;4983401;28;51818;-61
2023/05/20 01:08:06;;;;;;;;;17.25;16.75;;;;;-147.17;100.00;-2267.06;4985789;28;51334;-63
2023/05/20 01:10:36;;;;;;;;;17.75;16.50;;;;;-147.17;100.00;-2267.06;4986172;28;51440;-62
2023/05/20 01:13:07;;;;;;;;;20.00;17.50;;;;;-147.17;100.00;-2764.22;4986202;28;51054;-61
2023/05/20 01:15:34;;;;;;;;;16.00;16.00;;;;;-147.17;100.00;-3012.78;4985761;28;51250;-62
2023/05/20 01:18:04;;;;;;;;;16.50;15.50;;;;;-147.17;100.00;-2764.22;4985821;28;51246;-62
2023/05/20 01:20:31;;;;;;;;;17.75;16.00;;;;;-147.17;100.00;-3261.34;4985287;28;52139;-62
2023/05/20 01:22:56;;;;;;;;;14.25;14.00;;;;;-147.17;100.00;-3509.84;4986203;28;51221;-60
2023/05/20 01:25:23;;;;;;;;;16.25;15.00;;;;;-147.17;100.00;-3758.38;4985557;28;52009;-61
2023/05/20 01:27:51;;;;;;;;;16.25;13.75;;;;;-147.17;100.00;-4006.88;4986041;28;51339;-61
2023/05/20 01:30:17;;;;;;;;;17.00;16.00;;;;;-147.17;100.00;-4503.81;4985582;28;53772;-60
2023/05/20 01:32:48;;;;;;;;;16.25;15.25;;;;;-147.17;100.00;-4503.81;4985970;28;51275;-61
2023/05/20 01:35:15;;;;;;;;;14.75;14.00;;;;;-147.17;100.00;-5497.50;4985036;28;51310;-60
2023/05/20 01:37:42;;;;;;;;;14.00;14.00;;;;;-147.17;100.00;-5994.25;4985364;28;51554;-60
2023/05/20 01:40:09;;;;;;;;;18.25;16.75;;;;;-147.17;100.00;-6739.25;4985693;28;51227;-61
2023/05/20 01:42:36;;;;;;;;;16.75;15.00;;;;;-147.17;100.00;-6739.25;4985667;28;51362;-61
2023/05/20 01:45:02;;;;;;;;;15.00;14.00;;;;;-147.17;100.00;-6739.25;4985162;28;52004;-61
2023/05/20 01:47:27;;;;;;;;;19.75;17.25;;;;;-147.17;100.00;-6739.25;4984253;28;51164;-62
2023/05/20 01:49:53;;;;;;;;;16.25;15.50;;;;;-147.17;100.00;-6987.56;4985517;28;51145;-61
2023/05/20 01:52:22;;;;;;;;;13.75;13.25;;;;;-147.17;100.00;-7235.84;4984923;28;55552;-61
2023/05/20 01:54:50;;;;;;;;;16.50;15.75;;;;;-147.17;100.00;-7484.09;4985113;28;52068;-61
2023/05/20 01:57:20;;;;;;;;;16.50;15.50;;;;;-147.17;100.00;-7732.34;4985056;28;51225;-61
2023/05/20 01:59:45;;;;;;;;;14.00;14.00;;;;;-147.17;100.00;-7980.59;4985397;28;51251;-61
2023/05/20 02:02:10;;;;;;;;;16.00;15.00;;;;;-147.17;100.00;-8477.03;4985215;28;51196;-61
2023/05/20 02:04:36;;;;;;;;;17.00;16.00;;;;;-147.17;100.00;-8973.38;4967379;28;65865;-61
2023/05/20 02:07:01;;;;;;;;;16.75;16.50;;;;;-147.17;100.00;-8725.22;4988997;28;51221;-62
2023/05/20 02:09:27;;;;;;;;;12.75;12.00;;;;;-147.17;100.00;-9221.53;4988438;28;51292;-61
2023/05/20 02:11:52;;;;;;;;;15.75;14.75;;;;;-147.17;100.00;-9221.53;4988816;28;51232;-61
2023/05/20 02:14:18;;;;;;;;;18.25;16.00;;;;;-147.17;100.00;-9717.81;4988566;28;51592;-61
2023/05/20 02:16:44;;;;;;;;;18.75;18.00;;;;;-147.17;100.00;-9965.91;4988894;28;51283;-62
2023/05/20 02:19:11;;;;;;;;;17.25;15.25;;;;;-147.17;100.00;-9965.91;4988861;28;51151;-62
2023/05/20 02:21:41;;;;;;;;;17.50;17.25;;;;;-147.17;100.00;-9965.91;4988556;28;51265;-61
2023/05/20 02:24:07;;;;;;;;;16.25;14.25;;;;;-147.17;100.00;-10462.09;4971139;28;52355;-61
2023/05/20 02:26:35;;;;;;;;;17.75;17.00;;;;;-147.17;100.00;-10462.09;4988209;28;51177;-61
2023/05/20 02:29:00;;;;;;;;;15.50;14.75;;;;;-147.17;100.00;-10462.09;4988800;28;51235;-61
2023/05/20 02:31:26;;;;;;;;;17.75;17.50;;;;;-147.17;100.00;-10462.09;4988529;28;51390;-61
2023/05/20 02:33:51;;;;;;;;;19.50;18.25;;;;;-147.17;100.00;-10462.09;4988227;28;51140;-62
2023/05/20 02:36:16;;;;;;;;;15.00;13.75;;;;;-147.17;100.00;-10958.19;4988590;28;51229;-62
2023/05/20 02:38:43;;;;;;;;;23.50;19.75;;;;;-147.17;100.00;-11454.25;4970630;28;51273;-61
2023/05/20 02:41:08;;;;;;;;;16.25;15.75;;;;;-147.17;100.00;-11702.25;4988413;28;51311;-61
2023/05/20 02:43:35;;;;;;;;;21.00;19.75;;;;;-147.17;100.00;-11702.25;4988099;28;58060;-61
2023/05/20 02:46:01;;;;;;;;;17.75;17.25;;;;;-147.17;100.00;-11950.22;4988197;28;53565;-62
2023/05/20 02:48:26;;;;;;;;;17.50;17.00;;;;;-147.17;100.00;-12198.19;4970583;28;51228;-61
2023/05/20 02:50:52;;;;;;;;;16.50;15.75;;;;;-147.17;100.00;-12198.19;4988201;28;51483;-61
2023/05/20 02:53:17;;;;;;;;;20.75;19.25;;;;;-147.17;100.00;-12198.19;4988165;28;51821;-62
2023/05/20 02:55:46;;;;;;;;;21.75;19.50;;;;;-147.17;100.00;-12198.19;4988229;28;51253;-61
2023/05/20 02:58:12;;;;;;;;;20.25;18.75;;;;;-147.17;100.00;-12446.13;4988198;28;51322;-61
2023/05/20 03:00:39;;;;;;;;;19.00;17.50;;;;;-147.17;100.00;-13189.88;4987948;28;51107;-62
2023/05/20 03:03:08;;;;;;;;;20.50;19.50;;;;;-147.17;100.00;-13189.88;4987857;28;52021;-62
2023/05/20 03:05:41;;;;;;;;;22.25;20.25;;;;;-147.17;100.00;-13437.75;4987532;28;51516;-62
2023/05/20 03:08:09;;;;;;;;;19.00;18.25;;;;;-147.17;100.00;-13685.63;4985597;28;51160;-62
2023/05/20 03:10:36;;;;;;;;;17.50;15.75;;;;;-147.17;100.00;-13437.75;4987536;28;53478;-61
2023/05/20 03:13:02;;;;;;;;;23.50;21.50;;;;;-147.17;100.00;-13437.75;4987415;28;53576;-61
2023/05/20 03:15:27;;;;;;;;;16.75;16.25;;;;;-147.17;100.00;-13437.75;4987309;28;51215;-61
2023/05/20 03:17:52;;;;;;;;;19.00;18.25;;;;;-147.17;100.00;-13437.75;4987915;28;51128;-61
2023/05/20 03:20:19;;;;;;;;;24.75;21.00;;;;;-147.17;100.00;-14181.31;4970115;28;51474;-61
2023/05/20 03:22:44;;;;;;;;;21.50;21.00;;;;;-147.17;100.00;-14181.31;4987354;28;52049;-61
2023/05/20 03:25:10;;;;;;;;;18.75;18.00;;;;;-147.17;100.00;-14429.16;4987551;28;51237;-61
2023/05/20 03:27:36;;;;;;;;;20.25;18.50;;;;;-147.17;100.00;-14429.16;4988158;28;51165;-61
2023/05/20 03:30:03;;;;;;;;;19.00;18.75;;;;;-147.17;100.00;-14676.94;4986893;28;51589;-62
2023/05/20 03:32:29;;;;;;;;;18.75;18.00;;;;;-147.17;100.00;-14676.94;4987585;28;52130;-60
2023/05/20 03:34:56;;;;;;;;;21.25;20.25;;;;;-147.17;100.00;-14676.94;4986924;28;51126;-61
2023/05/20 03:37:22;;;;;;;;;22.25;19.50;;;;;-147.17;100.00;-14924.75;4987333;28;51241;-61
2023/05/20 03:39:47;;;;;;;;;20.00;20.00;;;;;-147.17;100.00;-14924.75;4987686;28;51443;-62
2023/05/20 03:42:13;;;;;;;;;19.75;19.25;;;;;-147.17;100.00;-14676.94;4987108;28;53866;-61
2023/05/20 03:44:38;;;;;;;;;22.50;18.25;;;;;-147.17;100.00;-14924.75;4969585;28;53114;-61
2023/05/20 03:47:04;;;;;;;;;19.75;18.75;;;;;-147.17;100.00;-15172.50;4986746;28;53925;-61
2023/05/20 03:49:29;;;;;;;;;21.50;20.75;;;;;-147.17;100.00;-15172.50;4987211;28;51439;-62
2023/05/20 03:51:54;;;;;;;;;19.50;18.75;;;;;-147.17;100.00;-15172.50;4987439;28;51757;-62
2023/05/20 03:54:20;;;;;;;;;21.25;19.75;;;;;-147.17;100.00;-15420.25;4987721;28;51145;-62
2023/05/20 03:56:45;;;;;;;;;20.50;20.00;;;;;-147.17;100.00;-15420.25;4987192;28;51414;-62
2023/05/20 03:59:11;;;;;;;;;19.75;19.00;;;;;-147.17;100.00;-15172.50;4970013;28;51146;-62
2023/05/20 04:01:37;;;;;;;;;18.25;16.25;;;;;-147.17;100.00;-15420.25;4986763;28;52803;-61
2023/05/20 04:04:02;;;;;;;;;19.00;18.50;;;;;-147.17;100.00;-15420.25;4986872;28;51473;-61
2023/05/20 04:06:27;;;;;;;;;21.00;20.25;;;;;-147.17;100.00;-15420.25;4942242;28;51264;-62
2023/05/20 04:08:53;;;;;;;;;27.75;24.00;;;;;-147.17;100.00;-15420.25;4986876;28;52847;-61
2023/05/20 04:11:18;;;;;;;;;21.75;21.75;;;;;-147.17;100.00;-15420.25;4986589;28;52023;-62
2023/05/20 04:13:44;;;;;;;;;21.50;19.75;;;;;-147.17;100.00;-15668.00;4987018;28;51184;-61
2023/05/20 04:16:09;;;;;;;;;22.75;20.50;;;;;-147.17;100.00;-15420.25;4986784;28;51192;-62
2023/05/20 04:18:37;;;;;;;;;23.00;22.00;;;;;-147.17;100.00;-15668.00;4987036;28;51361;-61
2023/05/20 04:21:03;;;;;;;;;21.25;19.75;;;;;-147.17;100.00;-15915.72;4986012;28;52835;-61
2023/05/20 04:23:29;;;;;;;;;25.75;24.75;;;;;-147.17;100.00;-15915.72;4986859;28;51282;-62
2023/05/20 04:25:54;;;;;;;;;22.00;20.25;;;;;-147.17;100.00;-15915.72;4986784;28;52945;-62
2023/05/20 04:28:22;;;;;;;;;23.25;22.75;;;;;-147.17;100.00;-15915.72;4986002;28;51152;-61
2023/05/20 04:30:48;;;;;;;;;25.00;24.25;;;;;-147.17;100.00;-15915.72;4986601;28;51209;-61
2023/05/20 04:33:15;;;;;;;;;40.00;32.75;;;;;-147.17;100.00;-15915.72;4986692;28;51262;-62
2023/05/20 04:35:41;;;;;;;;;23.00;23.00;;;;;-147.17;100.00;-15915.72;4986235;28;51263;-62
2023/05/20 04:38:07;;;;;;;;;22.00;21.00;;;;;-147.17;100.00;-15917.19;4986757;28;51133;-62
2023/05/20 04:40:32;;;;;;;;;24.50;23.75;;;;;-147.17;100.00;-15915.72;4986139;28;51145;-60
2023/05/20 04:43:02;;;;;;;;;23.50;22.75;;;;;-147.17;100.00;-15917.19;4986263;28;51245;-61
2023/05/20 04:45:28;;;;;;;;;24.75;23.75;;;;;-147.17;100.00;-15917.19;4985900;28;51271;-62
2023/05/20 04:47:53;;;;;;;;;22.25;21.50;;;;;-147.17;100.00;-15917.19;4986211;28;51169;-64
2023/05/20 04:50:20;;;;;;;;;19.00;19.00;;;;;-147.17;100.00;-15917.19;4986076;28;51667;-62
2023/05/20 04:52:46;;;;;;;;;25.00;22.50;;;;;-147.17;100.00;-15917.19;4986309;28;51326;-62
2023/05/20 04:55:12;;;;;;;;;22.25;20.50;;;;;-147.17;100.00;-15915.72;4986358;28;51110;-63
2023/05/20 04:57:41;;;;;;;;;24.00;22.75;;;;;-147.17;100.00;-15917.19;4986597;28;51154;-61
2023/05/20 05:00:09;;;;;;;;;23.25;21.00;;;;;-147.17;100.00;-15917.19;4985678;28;52120;-61
2023/05/20 05:02:35;;;;;;;;;28.00;23.75;;;;;-147.17;100.00;-15917.19;4985868;28;51181;-61
2023/05/20 05:05:00;;;;;;;;;28.25;22.50;;;;;-147.17;100.00;-15917.19;4986292;28;53703;-62
2023/05/20 05:07:25;;;;;;;;;24.50;22.75;;;;;-147.17;100.00;-15917.19;4968391;28;51205;-63
2023/05/20 05:09:51;;;;;;;;;23.50;22.50;;;;;-147.17;100.00;-15917.19;4983935;28;53128;-62
2023/05/20 05:12:16;;;;;;;;;23.00;22.00;;;;;-147.17;100.00;-15917.19;4985993;28;54521;-61
2023/05/20 05:14:41;;;;;;;;;25.25;24.50;;;;;-147.17;100.00;-15917.19;4986410;28;51343;-62
2023/05/20 05:17:07;;;;;;;;;21.00;20.00;;;;;-147.17;100.00;-15917.19;4986255;28;51167;-62
2023/05/20 05:19:32;;;;;;;;;23.00;21.25;;;;;-147.17;100.00;-15917.19;4985806;28;51477;-61
2023/05/20 05:21:57;;;;;;;;;25.25;23.25;;;;;-147.17;100.00;-15917.19;4985925;28;51208;-61
2023/05/20 05:24:23;;;;;;;;;28.00;26.50;;;;;-147.17;100.00;-15917.19;4985879;28;51076;-61
2023/05/20 05:26:53;;;;;;;;;28.00;25.75;;;;;-147.17;100.00;-15917.19;4986137;28;51308;-62
2023/05/20 05:29:18;;;;;;;;;28.50;27.25;;;;;-147.17;100.00;-15917.19;4985202;28;52562;-62
2023/05/20 05:31:43;;;;;;;;;27.00;24.50;;;;;-147.17;100.00;-15917.19;4985708;28;51154;-61
2023/05/20 05:34:08;;;;;;;;;24.00;24.00;;;;;-147.17;100.00;-15917.19;4986046;28;51141;-62
2023/05/20 05:36:34;;;;;;;;;26.50;25.25;;;;;-147.17;100.00;-15917.19;4985816;28;51529;-62
2023/05/20 05:38:59;;;;;;;;;27.75;23.75;;;;;-147.17;100.00;-15917.19;4985307;28;52765;-62
2023/05/20 05:41:25;;;;;;;;;28.00;22.75;;;;;-147.17;100.00;-15917.19;4985424;28;51264;-61
2023/05/20 05:43:51;;;;;;;;;27.75;26.50;;;;;-147.17;100.00;-15917.19;4986114;28;51311;-62
2023/05/20 05:46:16;;;;;;;;;23.50;22.50;;;;;-147.17;100.00;-15917.19;4985531;28;51368;-61
2023/05/20 05:48:41;;;;;;;;;27.00;26.50;;;;;-147.17;100.00;-15917.19;4984537;28;68935;-61
2023/05/20 05:51:07;;;;;;;;;26.50;25.25;;;;;-147.17;100.00;-15917.19;4985752;28;51259;-62
2023/05/20 05:53:32;;;;;;;;;26.00;24.00;;;;;-147.17;100.00;-15917.19;4985892;28;51511;-61
2023/05/20 05:55:57;;;;;;;;;27.75;25.50;;;;;-147.17;100.00;-15917.19;4967987;28;51371;-62
2023/05/20 05:58:22;;;;;;;;;27.00;25.75;;;;;-147.17;100.00;-15917.19;4985568;28;51948;-61
2023/05/20 06:00:51;;;;;;;;;29.00;26.75;;;;;-147.17;100.00;-15917.19;4981502;28;51261;-62
2023/05/20 06:03:17;;;;;;;;;31.50;29.25;;;;;-147.17;100.00;-15917.19;4985122;28;51260;-61
2023/05/20 06:05:48;;;;;;;;;25.25;24.25;;;;;-147.17;100.00;-15917.19;4985698;28;51519;-62
2023/05/20 06:08:13;;;;;;;;;26.50;25.75;;;;;-147.17;100.00;-15917.19;4984955;28;51989;-62
2023/05/20 06:10:39;;;;;;;;;24.75;24.00;;;;;-147.17;100.00;-15917.19;4985123;28;51073;-62
2023/05/20 06:13:04;;;;;;;;;26.50;26.25;;;;;-147.17;100.00;-15917.19;4985260;28;51226;-62
2023/05/20 06:15:29;;;;;;;;;25.50;24.50;;;;;-147.17;100.00;-15917.19;4985611;28;51239;-61
2023/05/20 06:17:55;;;;;;;;;26.00;25.75;;;;;-147.17;100.00;-15917.19;4985162;28;51932;-61
2023/05/20 06:20:20;;;;;;;;;26.00;24.25;;;;;-147.17;100.00;-15917.19;4983942;28;51353;-61
2023/05/20 06:22:45;;;;;;;;;27.75;26.75;;;;;-147.17;100.00;-15917.19;4985193;28;51110;-61
2023/05/20 06:25:13;;;;;;;;;30.25;26.25;;;;;-147.17;100.00;-15917.19;4985645;28;51099;-62
2023/05/20 06:27:38;;;;;;;;;26.75;25.75;;;;;-147.17;100.00;-15917.19;4984955;28;51334;-62
2023/05/20 06:30:04;;;;;;;;;29.00;27.75;;;;;-147.17;100.00;-15917.19;4985074;28;51262;-61
2023/05/20 06:32:30;;;;;;;;;23.75;23.00;;;;;-147.17;100.00;-15917.19;4985175;28;51196;-63
2023/05/20 06:34:55;;;;;;;;;32.00;29.00;;;;;-147.17;100.00;-15917.19;4985180;28;51484;-61
2023/05/20 06:37:23;;;;;;;;;25.50;24.75;;;;;-147.17;100.00;-15917.19;4984903;28;51961;-61
2023/05/20 06:39:52;;;;;;;;;26.75;25.00;;;;;-147.17;100.00;-15917.19;4984950;28;53338;-62
2023/05/20 06:42:18;;;;;;;;;26.50;26.50;;;;;-147.17;100.00;-15917.19;4985120;28;53839;-61
2023/05/20 06:44:43;;;;;;;;;28.75;23.50;;;;;-147.17;100.00;-15917.19;4985285;28;51395;-61
2023/05/20 06:47:08;;;;;;;;;25.00;25.00;;;;;-147.17;100.00;-15917.19;4984597;28;55151;-63
2023/05/20 06:49:34;;;;;;;;;23.75;23.75;;;;;-147.17;100.00;-15915.72;4984506;28;51294;-62
2023/05/20 06:51:59;;;;;;;;;25.00;23.75;;;;;-147.17;100.00;-15915.72;4987308;28;51686;-63
2023/05/20 06:54:26;;;;;;;;;26.00;25.75;;;;;-147.17;100.00;-15915.72;4988703;28;51303;-62
2023/05/20 06:56:51;;;;;;;;;31.75;28.50;;;;;-147.17;100.00;-15915.72;4987967;28;51340;-62
2023/05/20 06:59:16;;;;;;;;;28.00;25.75;;;;;-147.17;100.00;-15915.72;4987980;28;51212;-62
2023/05/20 07:01:42;;;;;;;;;27.00;24.50;;;;;-147.17;100.00;-15668.00;4987834;28;51339;-61
2023/05/20 07:04:07;;;;;;;;;28.75;26.25;;;;;-147.17;100.00;-15668.00;4970717;28;51965;-62
2023/05/20 07:06:32;;;;;;;;;25.25;24.25;;;;;-147.17;100.00;-15420.25;4988023;28;52185;-62
2023/05/20 07:08:58;;;;;;;;;29.75;28.25;;;;;-147.17;100.00;-14676.94;4988020;28;51372;-61
2023/05/20 07:11:23;;;;;;;;;28.00;27.00;;;;;-147.17;100.00;-14181.31;4953387;28;51337;-62
2023/05/20 07:13:48;;;;;;;;;25.00;24.25;;;;;-147.17;100.00;-14181.31;4968474;28;51395;-62
2023/05/20 07:16:14;;;;;;;;;26.50;25.50;;;;;-147.17;100.00;-13685.63;4968327;28;55656;-62
2023/05/20 07:18:39;;;;;;;;;25.75;24.25;;;;;-147.17;100.00;-13437.75;4968124;28;51089;-62
2023/05/20 07:21:05;;;;;;;;;26.00;26.00;;;;;-147.17;100.00;-12694.06;4968310;28;51137;-61
2023/05/20 07:23:30;;;;;;;;;24.75;24.00;;;;;-147.17;100.00;-12446.13;4968232;28;51271;-62
2023/05/20 07:25:55;;;;;;;;;26.75;26.25;;;;;-147.17;100.00;-11950.22;4968385;28;51192;-62
2023/05/20 07:28:21;;;;;;;;;29.50;27.25;;;;;-147.17;100.00;-11206.22;4968316;28;51416;-62
2023/05/20 07:30:49;;;;;;;;;24.75;22.50;;;;;-147.17;100.00;-10214.00;4968192;28;51229;-62
2023/05/20 07:33:16;;;;;;;;;25.75;25.00;;;;;-147.17;100.00;-7732.34;4968382;28;51402;-61
2023/05/20 07:35:41;;;;;;;;;27.00;25.50;;;;;-147.17;100.00;-6987.56;4967414;28;52863;-61
2023/05/20 07:38:07;;;;;;;;;24.00;23.75;;;;;-147.17;100.00;-6987.56;4967692;28;51181;-62
2023/05/20 07:40:32;;;;;;;;;25.50;22.25;;;;;-147.17;100.00;-5745.88;4968050;28;51337;-62
2023/05/20 07:42:57;;;;;;;;;23.25;22.25;;;;;-147.17;100.00;-5249.09;4968185;28;51451;-62
2023/05/20 07:45:23;;;;;;;;;25.25;24.00;;;;;-147.17;100.00;-3012.78;4967543;28;53472;-61
2023/05/20 07:47:48;;;;;;;;;19.25;17.00;;;;;-147.17;100.00;-1272.53;4967559;28;53219;-61
2023/05/20 07:50:14;;;;;;;;;25.00;24.50;;;;;-147.17;100.00;1712.56;4967298;28;51425;-61
2023/05/20 07:52:39;;;;;;;;;26.50;24.00;;;;;-147.17;100.00;2459.22;4967678;28;51253;-62
2023/05/20 07:55:05;;;;;;;;;25.75;24.00;;;;;-147.17;100.00;4201.94;4967795;28;53477;-62
2023/05/20 07:57:30;;;;;;;;;22.00;20.75;;;;;-147.17;100.00;5198.13;4966021;28;51242;-61
2023/05/20 07:59:55;;;;;;;;;23.75;23.75;;;;;-147.17;100.00;10681.81;4967566;28;51263;-62
2023/05/20 08:02:20;;;;;;;;;21.00;20.50;;;;;-147.17;100.00;11679.66;4965715;28;53115;-60
2023/05/20 08:04:46;;;;;;;;;26.25;26.25;;;;;-147.17;100.00;18921.88;4967567;28;51830;-61
2023/05/20 08:07:11;;;;;;;;;23.00;22.50;;;;;-147.17;100.00;26267.59;4966383;28;51312;-62
2023/05/20 08:09:37;;;;;;;;;23.75;22.50;;;;;-147.17;100.00;24106.22;4972427;28;51400;-63
2023/05/20 08:12:02;;;;;;;;;20.50;20.25;;;;;-147.17;100.00;26625.63;4984573;28;51237;-62
2023/05/20 08:14:27;;;;;;;;;20.75;19.00;;;;;-147.17;100.00;27709.81;4986844;28;52651;-62
2023/05/20 08:16:53;;;;;;;;;22.50;21.00;;;;;-147.17;100.00;29571.59;4986792;28;51405;-62
2023/05/20 08:19:18;;;;;;;;;19.00;18.00;;;;;-147.17;100.00;29152.56;4986773;28;51769;-62
2023/05/20 08:21:43;;;;;;;;;22.25;21.25;;;;;-147.17;100.00;31522.44;4986389;28;53013;-62
2023/05/20 08:24:09;;;;;;;;;20.50;20.00;;;;;-147.17;100.00;30535.13;4986386;28;51869;-62
2023/05/20 08:26:34;;;;;;;;;20.75;20.50;;;;;-147.17;100.00;32261.09;4986694;28;51224;-62
2023/05/20 08:29:00;;;;;;;;;23.50;22.75;;;;;-147.17;100.00;34425.03;4986612;28;51205;-62
2023/05/20 08:31:25;;;;;;;;;20.50;19.50;;;;;-147.17;100.00;33768.28;4986545;28;51128;-61
2023/05/20 08:33:50;;;;;;;;;18.00;16.75;;;;;-147.17;100.00;35501.53;4986241;28;52766;-61
2023/05/20 08:36:18;;;;;;;;;19.25;19.25;;;;;-147.17;100.00;36764.72;4986222;28;53856;-61
2023/05/20 08:38:43;;;;;;;;;19.50;18.50;;;;;-147.17;100.00;37418.06;4986226;28;51113;-61
2023/05/20 08:41:09;;;;;;;;;19.50;17.25;;;;;-147.17;100.00;37682.94;4986150;28;51614;-61
2023/05/20 08:43:36;;;;;;;;;21.50;19.75;;;;;-147.17;100.00;38776.06;4985990;28;51783;-62
2023/05/20 08:46:04;;;;;;;;;15.75;15.75;;;;;-147.17;100.00;37439.63;4986178;28;51203;-63
2023/05/20 08:48:30;;;;;;;;;17.00;17.00;;;;;-147.17;100.00;37784.97;4986098;28;51181;-63
2023/05/20 08:50:56;;;;;;;;;14.50;14.00;;;;;-147.17;100.00;38299.13;4986539;28;51263;-63
2023/05/20 08:53:22;;;;;;;;;18.00;18.00;;;;;-147.17;100.00;38385.50;4985365;28;52039;-62
2023/05/20 08:55:56;;;;;;;;;15.67;14.67;;;;;-147.17;100.00;39308.00;4985784;28;51207;-63
2023/05/20 08:58:23;;;;;;;;;17.00;16.25;;;;;-147.17;100.00;39402.25;4985520;28;51430;-63
2023/05/20 09:00:50;;;;;;;;;18.67;17.33;;;;;-147.17;100.00;38817.28;4985845;28;53474;-63
2023/05/20 09:03:15;;;;;;;;;16.33;16.00;;;;;-147.17;100.00;38416.88;4985146;28;53418;-63
2023/05/20 09:05:41;;;;;;;;;15.67;15.00;;;;;-147.17;100.00;38263.81;4985278;28;51231;-63
2023/05/20 09:08:08;;;;;;;;;15.33;15.33;;;;;-147.17;100.00;38063.63;4985715;28;51117;-61
2023/05/20 09:10:35;;;;;;;;;16.00;15.67;;;;;-147.17;100.00;38426.69;4985405;28;51511;-62
2023/05/20 09:13:01;;;;;;;;;17.67;16.33;;;;;-147.17;100.00;37938.03;4985145;28;52576;-63
2023/05/20 09:15:27;;;;;;;;;17.50;17.00;;;;;-147.17;100.00;37855.63;4985267;28;51411;-62
2023/05/20 09:17:52;;;;;;;;;20.00;17.67;;;;;-147.17;100.00;38053.81;4985883;28;51157;-62
2023/05/20 09:20:21;;;;;;;;;13.00;13.00;;;;;-147.17;100.00;37773.22;4985754;28;51165;-62
2023/05/20 09:22:51;;;;;;;;;17.67;17.00;;;;;-147.17;100.00;38201.00;4985237;28;52876;-62
2023/05/20 09:25:21;;;;;;;;;16.00;16.00;;;;;-147.17;100.00;38536.59;4985421;28;51436;-62
2023/05/20 09:27:47;;;;;;;;;10.67;10.67;;;;;-147.17;100.00;38259.88;4985083;28;51164;-62
2023/05/20 09:30:13;;;;;;;;;13.33;12.67;;;;;-147.17;100.00;38053.81;4985282;28;51060;-63
2023/05/20 09:32:38;;;;;;;;;13.67;13.67;;;;;-147.17;100.00;37873.28;4985288;28;51826;-62
2023/05/20 09:35:05;;;;;;;;;9.67;9.67;;;;;-147.17;100.00;38350.16;4985135;28;51212;-62
2023/05/20 09:37:34;;;;;;;;;11.00;11.00;;;;;-147.17;100.00;38456.13;4985466;28;51191;-62
2023/05/20 09:40:04;;;;;;;;;12.33;11.67;;;;;-147.17;100.00;38220.63;4967653;28;51162;-62
2023/05/20 09:42:42;;;;;;;;;13.67;13.33;;;;;-147.17;100.00;38106.81;4984608;28;51861;-62
2023/05/20 09:45:08;;;;;;;;;13.67;13.33;;;;;-147.17;100.00;38230.44;4985187;28;51222;-62
2023/05/20 09:47:36;;;;;;;;;13.67;12.67;;;;;-147.17;100.00;38118.59;4984864;28;51213;-62
2023/05/20 09:50:02;;;;;;;;;10.67;10.00;;;;;-147.17;100.00;38044.00;4984623;28;51330;-63
2023/05/20 09:52:28;;;;;;;;;11.00;10.33;;;;;-147.17;100.00;37720.22;4983891;28;51212;-62
2023/05/20 09:54:55;;;;;;;;;12.00;12.00;;;;;-147.17;100.00;37137.47;4983113;28;51238;-62
2023/05/20 09:57:20;;;;;;;;;11.67;11.00;;;;;-147.17;100.00;36413.59;4984938;28;51307;-62
2023/05/20 09:59:46;;;;;;;;;9.67;9.67;;;;;-147.17;100.00;35756.50;4984883;28;53276;-62
2023/05/20 10:02:12;;;;;;;;;12.00;12.00;;;;;-147.17;100.00;35342.69;4984596;28;51276;-62
2023/05/20 10:04:45;;;;;;;;;13.33;12.33;;;;;-147.17;100.00;34981.88;4984435;28;54269;-62
2023/05/20 10:07:41;;;;;;;;;12.00;12.00;;;;;-147.17;100.00;35305.44;4984962;28;51081;-62
2023/05/20 10:10:13;;;;;;;;;7.67;7.67;;;;;-147.17;100.00;35944.78;4984422;28;51228;-63
2023/05/20 10:12:42;;;;;;;;;10.00;10.00;;;;;-147.17;100.00;36472.44;4954372;28;53014;-62
2023/05/20 10:15:27;;;;;;;;;8.00;7.33;;;;;-147.17;100.00;36729.41;4984954;28;51155;-63
2023/05/20 10:18:08;;;;;;;;;10.67;9.33;;;;;-147.17;100.00;37545.59;4984466;28;51359;-62
2023/05/20 10:20:45;;;;;;;;;9.33;9.33;;;;;-147.17;100.00;39437.56;4984633;28;51193;-62
2023/05/20 10:23:20;;;;;;;;;10.67;10.67;;;;;-147.17;100.00;42422.63;4983120;28;52978;-61
2023/05/20 10:25:55;;;;;;;;;9.67;9.67;;;;;-147.17;100.00;44132.22;4984884;28;51245;-62
2023/05/20 10:28:46;;;;;;;;;10.67;9.67;;;;;-147.17;100.00;45201.56;4969095;28;51211;-62
2023/05/20 10:31:21;;;;;;;;;11.00;10.33;;;;;-147.17;100.00;45748.16;4982369;28;51201;-62
2023/05/20 10:33:47;;;;;;;;;3.67;3.33;;;;;-147.17;100.00;45500.41;4987276;28;51761;-62
2023/05/20 10:36:26;;;;;;;;;11.67;11.67;;;;;-147.17;100.00;45323.47;4987424;28;51183;-62
2023/05/20 10:38:53;;;;;;;;;10.33;10.00;;;;;-147.17;100.00;45643.94;4987439;28;51177;-61
2023/05/20 10:41:26;;;;;;;;;12.00;12.00;;;;;-147.17;100.00;46218.13;4987370;28;51138;-64
2023/05/20 10:44:01;;;;;;;;;13.33;13.33;;;;;-147.17;100.00;46670.44;4986750;28;52519;-62
2023/05/20 10:46:27;;;;;;;;;10.00;10.00;;;;;-147.17;100.00;47008.72;4956940;28;51231;-63
2023/05/20 10:48:52;;;;;;;;;9.00;9.00;;;;;-147.17;100.00;47274.25;4987106;28;51251;-62